Airfield :
LOGIN :

Register | Disclaimer

   EN    FR    IT 

 










Legend :    VFR   Marginal VFR   IFR   Intensive IFR   Very Intensive IFR
Visi :
Ceiling :
>= 8 km
>= 3000ft
5 to 8 km
1000 to 3000 ft
1500m to 5 km
500 to 1000 ft
800 to 1500m
200 to 500 ft
< 800m
< 200 ft
Symbols :   Thunderstorms  Fog  Heavy snow  Heavy precipitations  Wind > 20 kt
SIGMETs :     Misc.  Thunderstorms  Icing  Turbulence  Mountain Waves  Volcanic Ashes







- Airport Elevation : 453 ft
- IATA code : SBK
- Download approach charts


LFRT - St Brieuc Armor

EXPIRED METARs :
  • 241430Z AUTO 26010KT 230V290 9999 OVC037 22/14 Q1018
  • 241400Z AUTO 27010KT 220V300 9999 OVC038 22/13 Q1018
  • 241330Z AUTO 25009KT 190V290 9999 BKN037 OVC043 22/14 Q1018
  • 241300Z AUTO 27011KT 220V290 9999 FEW037 OVC044 23/14 Q1018
  • 241230Z AUTO 25009KT 200V280 9999 OVC039 23/13 Q1018
  • 241200Z AUTO 26012KT 210V280 9999 BKN039 23/14 Q1018

Expired Forecast.
No reported NOTAMs for that airfield.



MET'MAP, your aeronautical weather chart ! - Copyright ORBIFLY December 2007 - Disclaimer

ORBIFLY MET'MAP TEAM :

Programming & Development : Alexandra Zaïnal
Concept & Development : Baudouin d'Aumeries
Co-Development & Prog : Marc-Olivier Méhu
Technical & hardware support : Manuel Goepfert

Contact : metmap@orbifly.com




SOURCES & CREDITS :

   NOAA